Gaylordsville, Connecticut
Current Conditions -  °F | °C
As of 7:53 PM on Saturday 25 Oct 2014 (Local Time) from KDXR Reporting Station
Scattered Clouds Scattered Clouds  
Wind Chill: 11°   Ceiling: Unl
Heat Index: 11°   Visibility: 10mi
Dew Point:   Wind: 3mph
Humidity: 71%   Direction: 230°SW
Pressure: 29.62"   Gusts: NA
Location:  41.65°N, 73.48°W
Report Text: KDXR 252353Z 23003KT 10SM SCT080 11/06 A2962 RMK AO2 SLP030 T01110061 10183 20106 56010
Loading
Personal Weather Stations






























Interactive Weather Map
Tropical Storm Tracking
New forecast layout! Learn more

10-Day Weather Forecast

Advertisements
Track Severe Weather on mobile